sensor_id;sensor_type;location;lat;lon;timestamp;P1;durP1;ratioP1;P2;durP2;ratioP2
63007;SDS011;49266;47.552;19.078;2022-10-31T00:01:14;65.65;;;33.67;;
63007;SDS011;49266;47.552;19.078;2022-10-31T00:05:55;63.33;;;33.22;;
63007;SDS011;49266;47.552;19.078;2022-10-31T00:10:38;64.50;;;33.15;;
63007;SDS011;49266;47.552;19.078;2022-10-31T00:15:19;61.75;;;33.28;;
63007;SDS011;49266;47.552;19.078;2022-10-31T00:19:59;50.38;;;28.67;;
63007;SDS011;49266;47.552;19.078;2022-10-31T00:24:39;52.13;;;29.63;;
63007;SDS011;49266;47.552;19.078;2022-10-31T00:29:19;54.85;;;28.80;;
63007;SDS011;49266;47.552;19.078;2022-10-31T00:33:59;48.28;;;28.08;;
63007;SDS011;49266;47.552;19.078;2022-10-31T00:38:43;51.42;;;29.63;;
63007;SDS011;49266;47.552;19.078;2022-10-31T00:43:23;62.17;;;31.00;;
63007;SDS011;49266;47.552;19.078;2022-10-31T00:48:03;70.95;;;34.22;;
63007;SDS011;49266;47.552;19.078;2022-10-31T00:52:44;76.05;;;36.55;;
63007;SDS011;49266;47.552;19.078;2022-10-31T00:57:24;71.15;;;35.33;;
63007;SDS011;49266;47.552;19.078;2022-10-31T01:02:04;82.97;;;38.15;;
63007;SDS011;49266;47.552;19.078;2022-10-31T01:06:45;87.30;;;39.05;;
63007;SDS011;49266;47.552;19.078;2022-10-31T01:11:25;81.30;;;37.92;;
63007;SDS011;49266;47.552;19.078;2022-10-31T01:16:06;72.53;;;35.42;;
63007;SDS011;49266;47.552;19.078;2022-10-31T01:20:46;77.18;;;37.08;;
63007;SDS011;49266;47.552;19.078;2022-10-31T01:25:27;82.47;;;37.58;;
63007;SDS011;49266;47.552;19.078;2022-10-31T01:30:07;82.10;;;38.50;;
63007;SDS011;49266;47.552;19.078;2022-10-31T01:34:47;76.20;;;37.50;;
63007;SDS011;49266;47.552;19.078;2022-10-31T01:39:27;81.78;;;39.03;;
63007;SDS011;49266;47.552;19.078;2022-10-31T01:48:54;79.70;;;37.80;;
63007;SDS011;49266;47.552;19.078;2022-10-31T01:53:35;79.43;;;37.25;;
63007;SDS011;49266;47.552;19.078;2022-10-31T01:58:20;84.90;;;37.30;;
63007;SDS011;49266;47.552;19.078;2022-10-31T02:03:01;87.20;;;40.23;;
63007;SDS011;49266;47.552;19.078;2022-10-31T02:07:43;91.38;;;38.42;;
63007;SDS011;49266;47.552;19.078;2022-10-31T02:12:25;87.90;;;38.65;;
63007;SDS011;49266;47.552;19.078;2022-10-31T02:17:05;91.43;;;40.27;;
63007;SDS011;49266;47.552;19.078;2022-10-31T02:21:53;87.28;;;39.15;;
63007;SDS011;49266;47.552;19.078;2022-10-31T02:31:26;93.55;;;39.03;;
63007;SDS011;49266;47.552;19.078;2022-10-31T02:41:01;76.78;;;35.15;;
63007;SDS011;49266;47.552;19.078;2022-10-31T02:45:52;76.32;;;34.35;;
63007;SDS011;49266;47.552;19.078;2022-10-31T02:50:34;72.22;;;33.33;;
63007;SDS011;49266;47.552;19.078;2022-10-31T03:00:07;50.90;;;26.60;;
63007;SDS011;49266;47.552;19.078;2022-10-31T03:09:38;44.83;;;23.97;;
63007;SDS011;49266;47.552;19.078;2022-10-31T03:14:22;40.40;;;23.17;;
63007;SDS011;49266;47.552;19.078;2022-10-31T03:19:06;41.35;;;23.83;;
63007;SDS011;49266;47.552;19.078;2022-10-31T03:23:47;39.35;;;22.02;;
63007;SDS011;49266;47.552;19.078;2022-10-31T03:28:29;41.00;;;22.10;;
63007;SDS011;49266;47.552;19.078;2022-10-31T03:33:11;37.78;;;22.98;;
63007;SDS011;49266;47.552;19.078;2022-10-31T03:37:53;41.45;;;23.38;;
63007;SDS011;49266;47.552;19.078;2022-10-31T03:42:34;41.15;;;23.30;;
63007;SDS011;49266;47.552;19.078;2022-10-31T03:47:17;42.88;;;23.13;;
63007;SDS011;49266;47.552;19.078;2022-10-31T03:56:41;43.30;;;23.80;;
63007;SDS011;49266;47.552;19.078;2022-10-31T04:01:23;40.15;;;23.30;;
63007;SDS011;49266;47.552;19.078;2022-10-31T04:06:06;42.10;;;23.40;;
63007;SDS011;49266;47.552;19.078;2022-10-31T04:10:47;40.35;;;22.48;;
63007;SDS011;49266;47.552;19.078;2022-10-31T04:15:28;41.53;;;23.83;;
63007;SDS011;49266;47.552;19.078;2022-10-31T04:20:10;43.70;;;23.40;;
63007;SDS011;49266;47.552;19.078;2022-10-31T04:24:51;39.53;;;22.15;;
63007;SDS011;49266;47.552;19.078;2022-10-31T04:29:31;41.13;;;22.77;;
63007;SDS011;49266;47.552;19.078;2022-10-31T04:34:11;38.63;;;22.27;;
63007;SDS011;49266;47.552;19.078;2022-10-31T04:38:51;41.33;;;22.23;;
63007;SDS011;49266;47.552;19.078;2022-10-31T04:43:31;39.25;;;21.60;;
63007;SDS011;49266;47.552;19.078;2022-10-31T04:48:11;41.55;;;22.25;;
63007;SDS011;49266;47.552;19.078;2022-10-31T04:52:52;38.50;;;22.52;;
63007;SDS011;49266;47.552;19.078;2022-10-31T04:57:32;36.47;;;21.55;;
63007;SDS011;49266;47.552;19.078;2022-10-31T05:02:12;37.05;;;20.55;;
63007;SDS011;49266;47.552;19.078;2022-10-31T05:06:52;39.92;;;21.83;;
63007;SDS011;49266;47.552;19.078;2022-10-31T05:11:32;43.53;;;22.00;;
63007;SDS011;49266;47.552;19.078;2022-10-31T05:16:13;41.42;;;22.65;;
63007;SDS011;49266;47.552;19.078;2022-10-31T05:20:53;40.60;;;21.77;;
63007;SDS011;49266;47.552;19.078;2022-10-31T05:25:33;43.17;;;22.35;;
63007;SDS011;49266;47.552;19.078;2022-10-31T05:30:15;43.40;;;21.80;;
63007;SDS011;49266;47.552;19.078;2022-10-31T05:34:56;43.55;;;22.63;;
63007;SDS011;49266;47.552;19.078;2022-10-31T05:39:36;46.63;;;23.60;;
63007;SDS011;49266;47.552;19.078;2022-10-31T05:44:16;47.10;;;24.52;;
63007;SDS011;49266;47.552;19.078;2022-10-31T05:48:57;48.75;;;25.23;;
63007;SDS011;49266;47.552;19.078;2022-10-31T05:53:37;41.80;;;22.50;;
63007;SDS011;49266;47.552;19.078;2022-10-31T05:58:17;42.80;;;22.95;;
63007;SDS011;49266;47.552;19.078;2022-10-31T06:02:58;37.08;;;20.67;;
63007;SDS011;49266;47.552;19.078;2022-10-31T06:07:38;35.92;;;20.58;;
63007;SDS011;49266;47.552;19.078;2022-10-31T06:12:19;37.35;;;21.40;;
63007;SDS011;49266;47.552;19.078;2022-10-31T06:16:59;44.90;;;23.50;;
63007;SDS011;49266;47.552;19.078;2022-10-31T06:21:39;47.00;;;23.02;;
63007;SDS011;49266;47.552;19.078;2022-10-31T06:26:19;42.50;;;22.20;;
63007;SDS011;49266;47.552;19.078;2022-10-31T06:30:59;45.53;;;22.73;;
63007;SDS011;49266;47.552;19.078;2022-10-31T06:35:44;45.88;;;22.83;;
63007;SDS011;49266;47.552;19.078;2022-10-31T06:40:24;42.15;;;22.48;;
63007;SDS011;49266;47.552;19.078;2022-10-31T06:45:04;43.10;;;22.58;;
63007;SDS011;49266;47.552;19.078;2022-10-31T06:49:45;41.92;;;21.75;;
63007;SDS011;49266;47.552;19.078;2022-10-31T06:54:25;40.50;;;21.05;;
63007;SDS011;49266;47.552;19.078;2022-10-31T06:59:05;35.75;;;19.25;;
63007;SDS011;49266;47.552;19.078;2022-10-31T07:03:45;37.03;;;19.20;;
63007;SDS011;49266;47.552;19.078;2022-10-31T07:08:25;37.55;;;19.17;;
63007;SDS011;49266;47.552;19.078;2022-10-31T07:13:06;35.72;;;19.67;;
63007;SDS011;49266;47.552;19.078;2022-10-31T07:17:49;35.88;;;19.58;;
63007;SDS011;49266;47.552;19.078;2022-10-31T07:22:33;35.60;;;19.13;;
63007;SDS011;49266;47.552;19.078;2022-10-31T07:27:13;35.15;;;18.38;;
63007;SDS011;49266;47.552;19.078;2022-10-31T07:31:54;31.13;;;17.98;;
63007;SDS011;49266;47.552;19.078;2022-10-31T07:36:34;29.33;;;17.20;;
63007;SDS011;49266;47.552;19.078;2022-10-31T07:41:14;38.03;;;19.58;;
63007;SDS011;49266;47.552;19.078;2022-10-31T07:45:54;36.17;;;19.08;;
63007;SDS011;49266;47.552;19.078;2022-10-31T07:50:34;33.22;;;18.73;;
63007;SDS011;49266;47.552;19.078;2022-10-31T07:55:14;30.10;;;17.65;;
63007;SDS011;49266;47.552;19.078;2022-10-31T07:59:55;31.80;;;17.45;;
63007;SDS011;49266;47.552;19.078;2022-10-31T08:04:35;29.05;;;16.98;;
63007;SDS011;49266;47.552;19.078;2022-10-31T08:09:15;31.70;;;17.60;;
63007;SDS011;49266;47.552;19.078;2022-10-31T08:13:55;32.08;;;17.83;;
63007;SDS011;49266;47.552;19.078;2022-10-31T08:18:35;31.20;;;17.67;;
63007;SDS011;49266;47.552;19.078;2022-10-31T08:23:17;31.45;;;16.98;;
63007;SDS011;49266;47.552;19.078;2022-10-31T08:27:57;30.20;;;17.23;;
63007;SDS011;49266;47.552;19.078;2022-10-31T08:32:37;31.17;;;18.23;;
63007;SDS011;49266;47.552;19.078;2022-10-31T08:37:18;31.40;;;18.70;;
63007;SDS011;49266;47.552;19.078;2022-10-31T08:41:59;33.22;;;18.92;;
63007;SDS011;49266;47.552;19.078;2022-10-31T08:46:39;36.38;;;19.15;;
63007;SDS011;49266;47.552;19.078;2022-10-31T08:51:20;34.45;;;19.58;;
63007;SDS011;49266;47.552;19.078;2022-10-31T08:56:00;34.50;;;19.20;;
63007;SDS011;49266;47.552;19.078;2022-10-31T09:00:40;32.60;;;18.52;;
63007;SDS011;49266;47.552;19.078;2022-10-31T09:05:20;34.78;;;19.45;;
63007;SDS011;49266;47.552;19.078;2022-10-31T09:10:00;36.00;;;20.40;;
63007;SDS011;49266;47.552;19.078;2022-10-31T09:14:41;38.47;;;20.80;;
63007;SDS011;49266;47.552;19.078;2022-10-31T09:19:21;38.75;;;21.58;;
63007;SDS011;49266;47.552;19.078;2022-10-31T09:24:01;37.20;;;20.30;;
63007;SDS011;49266;47.552;19.078;2022-10-31T09:28:41;40.53;;;21.38;;
63007;SDS011;49266;47.552;19.078;2022-10-31T09:33:21;39.72;;;21.40;;
63007;SDS011;49266;47.552;19.078;2022-10-31T09:38:03;41.85;;;21.77;;
63007;SDS011;49266;47.552;19.078;2022-10-31T09:42:58;40.83;;;21.73;;
63007;SDS011;49266;47.552;19.078;2022-10-31T09:47:46;41.67;;;21.50;;
63007;SDS011;49266;47.552;19.078;2022-10-31T09:52:29;40.92;;;22.52;;
63007;SDS011;49266;47.552;19.078;2022-10-31T09:57:12;42.15;;;23.30;;
63007;SDS011;49266;47.552;19.078;2022-10-31T10:02:01;46.42;;;24.13;;
63007;SDS011;49266;47.552;19.078;2022-10-31T10:06:44;48.03;;;24.02;;
63007;SDS011;49266;47.552;19.078;2022-10-31T10:21:10;48.90;;;24.60;;
63007;SDS011;49266;47.552;19.078;2022-10-31T10:25:58;51.47;;;25.05;;
63007;SDS011;49266;47.552;19.078;2022-10-31T10:30:42;47.42;;;23.70;;
63007;SDS011;49266;47.552;19.078;2022-10-31T10:40:15;49.33;;;24.83;;
63007;SDS011;49266;47.552;19.078;2022-10-31T10:44:56;58.50;;;28.23;;
63007;SDS011;49266;47.552;19.078;2022-10-31T10:49:55;57.22;;;27.05;;
63007;SDS011;49266;47.552;19.078;2022-10-31T10:59:19;57.95;;;28.20;;
63007;SDS011;49266;47.552;19.078;2022-10-31T11:04:01;54.75;;;25.73;;
63007;SDS011;49266;47.552;19.078;2022-10-31T11:08:42;53.60;;;25.92;;
63007;SDS011;49266;47.552;19.078;2022-10-31T11:13:23;53.63;;;24.98;;
63007;SDS011;49266;47.552;19.078;2022-10-31T11:18:03;52.90;;;25.10;;
63007;SDS011;49266;47.552;19.078;2022-10-31T11:22:44;50.90;;;24.75;;
63007;SDS011;49266;47.552;19.078;2022-10-31T11:27:25;53.30;;;25.35;;
63007;SDS011;49266;47.552;19.078;2022-10-31T11:32:08;51.20;;;24.70;;
63007;SDS011;49266;47.552;19.078;2022-10-31T11:36:54;52.55;;;26.48;;
63007;SDS011;49266;47.552;19.078;2022-10-31T11:41:35;54.22;;;26.33;;
63007;SDS011;49266;47.552;19.078;2022-10-31T11:46:19;48.88;;;26.17;;
63007;SDS011;49266;47.552;19.078;2022-10-31T11:51:01;49.58;;;24.92;;
63007;SDS011;49266;47.552;19.078;2022-10-31T11:55:41;49.70;;;25.67;;
63007;SDS011;49266;47.552;19.078;2022-10-31T12:00:23;49.53;;;26.13;;
63007;SDS011;49266;47.552;19.078;2022-10-31T12:05:19;44.97;;;24.35;;
63007;SDS011;49266;47.552;19.078;2022-10-31T12:10:01;46.90;;;24.80;;
63007;SDS011;49266;47.552;19.078;2022-10-31T12:24:19;44.50;;;23.67;;
63007;SDS011;49266;47.552;19.078;2022-10-31T12:29:06;46.13;;;25.00;;
63007;SDS011;49266;47.552;19.078;2022-10-31T12:43:32;41.53;;;22.67;;
63007;SDS011;49266;47.552;19.078;2022-10-31T12:48:27;42.08;;;23.38;;
63007;SDS011;49266;47.552;19.078;2022-10-31T12:58:07;37.92;;;22.48;;
63007;SDS011;49266;47.552;19.078;2022-10-31T13:07:41;35.42;;;20.38;;
63007;SDS011;49266;47.552;19.078;2022-10-31T13:12:23;32.35;;;19.95;;
63007;SDS011;49266;47.552;19.078;2022-10-31T13:17:04;33.72;;;20.27;;
63007;SDS011;49266;47.552;19.078;2022-10-31T13:21:53;38.13;;;23.00;;
63007;SDS011;49266;47.552;19.078;2022-10-31T13:26:41;39.10;;;23.08;;
63007;SDS011;49266;47.552;19.078;2022-10-31T13:31:23;40.67;;;22.75;;
63007;SDS011;49266;47.552;19.078;2022-10-31T13:36:06;42.03;;;23.87;;
63007;SDS011;49266;47.552;19.078;2022-10-31T13:40:59;40.03;;;22.88;;
63007;SDS011;49266;47.552;19.078;2022-10-31T13:45:50;35.60;;;20.92;;
63007;SDS011;49266;47.552;19.078;2022-10-31T13:50:31;36.03;;;21.90;;
63007;SDS011;49266;47.552;19.078;2022-10-31T14:00:22;38.25;;;23.30;;
63007;SDS011;49266;47.552;19.078;2022-10-31T14:05:06;39.55;;;21.98;;
63007;SDS011;49266;47.552;19.078;2022-10-31T14:10:06;36.47;;;21.02;;
63007;SDS011;49266;47.552;19.078;2022-10-31T14:14:58;32.92;;;20.38;;
63007;SDS011;49266;47.552;19.078;2022-10-31T14:19:39;35.00;;;20.40;;
63007;SDS011;49266;47.552;19.078;2022-10-31T14:29:20;32.35;;;18.85;;
63007;SDS011;49266;47.552;19.078;2022-10-31T14:34:01;29.65;;;19.42;;
63007;SDS011;49266;47.552;19.078;2022-10-31T14:43:33;31.05;;;20.42;;
63007;SDS011;49266;47.552;19.078;2022-10-31T14:53:02;34.92;;;20.15;;
63007;SDS011;49266;47.552;19.078;2022-10-31T14:57:46;33.53;;;21.05;;
63007;SDS011;49266;47.552;19.078;2022-10-31T15:02:30;33.97;;;20.48;;
63007;SDS011;49266;47.552;19.078;2022-10-31T15:11:54;33.55;;;20.42;;
63007;SDS011;49266;47.552;19.078;2022-10-31T15:16:42;32.67;;;20.58;;
63007;SDS011;49266;47.552;19.078;2022-10-31T15:21:23;31.17;;;20.05;;
63007;SDS011;49266;47.552;19.078;2022-10-31T15:26:04;34.17;;;21.80;;
63007;SDS011;49266;47.552;19.078;2022-10-31T15:30:52;35.90;;;21.05;;
63007;SDS011;49266;47.552;19.078;2022-10-31T15:35:33;32.70;;;20.60;;
63007;SDS011;49266;47.552;19.078;2022-10-31T15:40:16;36.10;;;22.58;;
63007;SDS011;49266;47.552;19.078;2022-10-31T15:45:00;38.42;;;21.95;;
63007;SDS011;49266;47.552;19.078;2022-10-31T15:49:42;33.97;;;21.45;;
63007;SDS011;49266;47.552;19.078;2022-10-31T15:54:27;39.33;;;22.42;;
63007;SDS011;49266;47.552;19.078;2022-10-31T15:59:11;35.90;;;20.27;;
63007;SDS011;49266;47.552;19.078;2022-10-31T16:08:52;35.17;;;19.60;;
63007;SDS011;49266;47.552;19.078;2022-10-31T16:13:34;32.73;;;19.67;;
63007;SDS011;49266;47.552;19.078;2022-10-31T16:18:14;33.15;;;18.67;;
63007;SDS011;49266;47.552;19.078;2022-10-31T16:22:55;31.08;;;19.52;;
63007;SDS011;49266;47.552;19.078;2022-10-31T16:27:57;35.92;;;19.42;;
63007;SDS011;49266;47.552;19.078;2022-10-31T16:32:52;29.92;;;19.00;;
63007;SDS011;49266;47.552;19.078;2022-10-31T16:37:33;34.00;;;20.20;;
63007;SDS011;49266;47.552;19.078;2022-10-31T16:42:13;34.03;;;19.50;;
63007;SDS011;49266;47.552;19.078;2022-10-31T16:51:46;38.30;;;21.52;;
63007;SDS011;49266;47.552;19.078;2022-10-31T16:56:27;46.70;;;21.50;;
63007;SDS011;49266;47.552;19.078;2022-10-31T17:01:08;36.40;;;21.75;;
63007;SDS011;49266;47.552;19.078;2022-10-31T17:05:49;40.97;;;21.25;;
63007;SDS011;49266;47.552;19.078;2022-10-31T17:10:29;43.05;;;22.08;;
63007;SDS011;49266;47.552;19.078;2022-10-31T17:15:19;40.87;;;21.00;;
63007;SDS011;49266;47.552;19.078;2022-10-31T17:20:00;44.38;;;22.38;;
63007;SDS011;49266;47.552;19.078;2022-10-31T17:24:40;41.03;;;22.48;;
63007;SDS011;49266;47.552;19.078;2022-10-31T17:29:20;43.47;;;23.15;;
63007;SDS011;49266;47.552;19.078;2022-10-31T17:34:01;41.80;;;23.80;;
63007;SDS011;49266;47.552;19.078;2022-10-31T17:38:42;39.08;;;20.92;;
63007;SDS011;49266;47.552;19.078;2022-10-31T17:43:22;38.65;;;20.67;;
63007;SDS011;49266;47.552;19.078;2022-10-31T17:48:06;37.80;;;21.40;;
63007;SDS011;49266;47.552;19.078;2022-10-31T17:52:46;46.42;;;23.00;;
63007;SDS011;49266;47.552;19.078;2022-10-31T17:57:31;42.05;;;21.60;;
63007;SDS011;49266;47.552;19.078;2022-10-31T18:02:11;40.63;;;21.48;;
63007;SDS011;49266;47.552;19.078;2022-10-31T18:06:51;34.22;;;19.98;;
63007;SDS011;49266;47.552;19.078;2022-10-31T18:11:31;35.67;;;19.10;;
63007;SDS011;49266;47.552;19.078;2022-10-31T18:16:13;36.83;;;19.25;;
63007;SDS011;49266;47.552;19.078;2022-10-31T18:20:56;35.03;;;19.70;;
63007;SDS011;49266;47.552;19.078;2022-10-31T18:25:36;45.95;;;22.98;;
63007;SDS011;49266;47.552;19.078;2022-10-31T18:30:17;43.78;;;22.33;;
63007;SDS011;49266;47.552;19.078;2022-10-31T18:34:58;42.65;;;21.38;;
63007;SDS011;49266;47.552;19.078;2022-10-31T18:39:38;38.78;;;20.77;;
63007;SDS011;49266;47.552;19.078;2022-10-31T18:44:18;38.63;;;20.52;;
63007;SDS011;49266;47.552;19.078;2022-10-31T18:48:59;40.17;;;21.13;;
63007;SDS011;49266;47.552;19.078;2022-10-31T18:53:39;44.10;;;21.80;;
63007;SDS011;49266;47.552;19.078;2022-10-31T18:58:19;43.70;;;22.58;;
63007;SDS011;49266;47.552;19.078;2022-10-31T19:03:00;48.03;;;24.00;;
63007;SDS011;49266;47.552;19.078;2022-10-31T19:07:40;50.20;;;25.58;;
63007;SDS011;49266;47.552;19.078;2022-10-31T19:12:20;44.53;;;22.30;;
63007;SDS011;49266;47.552;19.078;2022-10-31T19:17:00;43.85;;;23.75;;
63007;SDS011;49266;47.552;19.078;2022-10-31T19:21:40;39.28;;;19.95;;
63007;SDS011;49266;47.552;19.078;2022-10-31T19:26:21;39.53;;;21.33;;
63007;SDS011;49266;47.552;19.078;2022-10-31T19:31:01;43.10;;;22.50;;
63007;SDS011;49266;47.552;19.078;2022-10-31T19:35:41;41.00;;;21.90;;
63007;SDS011;49266;47.552;19.078;2022-10-31T19:40:21;46.20;;;21.63;;
63007;SDS011;49266;47.552;19.078;2022-10-31T19:45:02;43.65;;;22.38;;
63007;SDS011;49266;47.552;19.078;2022-10-31T19:49:42;49.67;;;23.23;;
63007;SDS011;49266;47.552;19.078;2022-10-31T19:54:22;46.85;;;22.60;;
63007;SDS011;49266;47.552;19.078;2022-10-31T19:59:03;47.08;;;23.38;;
63007;SDS011;49266;47.552;19.078;2022-10-31T20:03:43;44.97;;;21.17;;
63007;SDS011;49266;47.552;19.078;2022-10-31T20:08:24;43.58;;;21.05;;
63007;SDS011;49266;47.552;19.078;2022-10-31T20:13:04;48.00;;;21.00;;
63007;SDS011;49266;47.552;19.078;2022-10-31T20:17:44;45.72;;;21.17;;
63007;SDS011;49266;47.552;19.078;2022-10-31T20:22:24;49.05;;;22.05;;
63007;SDS011;49266;47.552;19.078;2022-10-31T20:27:05;51.67;;;22.35;;
63007;SDS011;49266;47.552;19.078;2022-10-31T20:31:45;50.58;;;21.52;;
63007;SDS011;49266;47.552;19.078;2022-10-31T20:36:26;51.38;;;22.27;;
63007;SDS011;49266;47.552;19.078;2022-10-31T20:41:09;54.40;;;24.23;;
63007;SDS011;49266;47.552;19.078;2022-10-31T20:45:49;59.00;;;25.15;;
63007;SDS011;49266;47.552;19.078;2022-10-31T20:50:29;55.42;;;24.10;;
63007;SDS011;49266;47.552;19.078;2022-10-31T20:55:10;56.78;;;24.95;;
63007;SDS011;49266;47.552;19.078;2022-10-31T20:59:50;58.80;;;23.10;;
63007;SDS011;49266;47.552;19.078;2022-10-31T21:04:30;57.78;;;24.05;;
63007;SDS011;49266;47.552;19.078;2022-10-31T21:09:10;58.90;;;24.63;;
63007;SDS011;49266;47.552;19.078;2022-10-31T21:13:51;64.45;;;26.30;;
63007;SDS011;49266;47.552;19.078;2022-10-31T21:18:32;59.47;;;26.70;;
63007;SDS011;49266;47.552;19.078;2022-10-31T21:23:13;58.92;;;25.40;;
63007;SDS011;49266;47.552;19.078;2022-10-31T21:27:53;53.92;;;25.38;;
63007;SDS011;49266;47.552;19.078;2022-10-31T21:32:33;48.28;;;22.58;;
63007;SDS011;49266;47.552;19.078;2022-10-31T21:37:13;52.10;;;22.67;;
63007;SDS011;49266;47.552;19.078;2022-10-31T21:41:53;49.90;;;22.25;;
63007;SDS011;49266;47.552;19.078;2022-10-31T21:46:33;59.97;;;24.30;;
63007;SDS011;49266;47.552;19.078;2022-10-31T21:51:15;53.08;;;23.30;;
63007;SDS011;49266;47.552;19.078;2022-10-31T21:56:00;60.45;;;25.30;;
63007;SDS011;49266;47.552;19.078;2022-10-31T22:00:40;58.08;;;25.23;;
63007;SDS011;49266;47.552;19.078;2022-10-31T22:05:21;62.60;;;24.73;;
63007;SDS011;49266;47.552;19.078;2022-10-31T22:10:01;54.42;;;22.70;;
63007;SDS011;49266;47.552;19.078;2022-10-31T22:14:41;53.80;;;22.55;;
63007;SDS011;49266;47.552;19.078;2022-10-31T22:19:21;50.00;;;21.60;;
63007;SDS011;49266;47.552;19.078;2022-10-31T22:24:02;50.40;;;22.20;;
63007;SDS011;49266;47.552;19.078;2022-10-31T22:28:43;54.45;;;21.38;;
63007;SDS011;49266;47.552;19.078;2022-10-31T22:33:24;58.05;;;22.55;;
63007;SDS011;49266;47.552;19.078;2022-10-31T22:38:04;54.05;;;21.83;;
63007;SDS011;49266;47.552;19.078;2022-10-31T22:42:44;55.42;;;22.52;;
63007;SDS011;49266;47.552;19.078;2022-10-31T22:47:24;63.88;;;24.08;;
63007;SDS011;49266;47.552;19.078;2022-10-31T22:52:04;66.47;;;23.70;;
63007;SDS011;49266;47.552;19.078;2022-10-31T22:56:45;51.35;;;23.70;;
63007;SDS011;49266;47.552;19.078;2022-10-31T23:01:27;53.95;;;22.75;;
63007;SDS011;49266;47.552;19.078;2022-10-31T23:06:10;59.05;;;23.50;;
63007;SDS011;49266;47.552;19.078;2022-10-31T23:10:50;55.97;;;22.20;;
63007;SDS011;49266;47.552;19.078;2022-10-31T23:15:31;56.85;;;23.02;;
63007;SDS011;49266;47.552;19.078;2022-10-31T23:20:11;52.67;;;21.02;;
63007;SDS011;49266;47.552;19.078;2022-10-31T23:24:51;48.13;;;21.17;;
63007;SDS011;49266;47.552;19.078;2022-10-31T23:29:32;53.25;;;20.75;;
63007;SDS011;49266;47.552;19.078;2022-10-31T23:34:12;54.67;;;21.33;;
63007;SDS011;49266;47.552;19.078;2022-10-31T23:38:52;51.92;;;21.38;;
63007;SDS011;49266;47.552;19.078;2022-10-31T23:43:32;54.03;;;20.65;;
63007;SDS011;49266;47.552;19.078;2022-10-31T23:48:12;52.70;;;20.55;;
63007;SDS011;49266;47.552;19.078;2022-10-31T23:52:53;50.45;;;20.45;;
63007;SDS011;49266;47.552;19.078;2022-10-31T23:57:33;51.95;;;21.10;;
